Aeroporto :







RITROVATECI SU...

 
LOGIN :

Iscrizione | Disclaimer

   EN    FR    IT 

 









Sommario :    VFR   VFR Marginale   IFR   IFR Intensivo   IFR Molto Intensivo
Visibilità : 
Base nubi : 
>= 8 km
>= 3000ft
5 / 8 km
1000 / 3000 ft
1500m / 5 km
500 / 1000 ft
800 / 1500m
200 / 500 ft
< 800m
< 200 ft
Simboli :   Temporali  Nebbia  Neve Forte  Precipitazioni Forti  Vento > 20 kt






- Altitudine del aeroporto : 38 ft
- Codice IATA : YMH


CYMH - Mary's Harbour

ULTIMO METAR :
  • 160800Z AUTO 21013G23KT 9SM OVC055 01/M01 A2867 RMK SLP709

METARs OBSOLETI :
  • 160734Z AUTO 21013G19KT 9SM FEW016 OVC200 01/M01 A2867 RMK SLP710
  • 160723Z AUTO 21013G22KT 9SM -RASN FEW017 OVC200 01/M01 A2867 RMK SLP711
  • 160715Z AUTO 21014G24KT 9SM -RA FEW021 BKN200 01/M01 A2867 RMK SLP711
  • 160700Z AUTO 21013G26KT 9SM FEW021 BKN200 01/M01 A2867 RMK SLP710
  • 160600Z AUTO 21013G23KT 9SM BKN045 01/M01 A2869 RMK SLP717
  • 160526Z AUTO 23017G26KT 9SM SCT021 01/M01 A2870 RMK SLP720

Previsioni scadute.



MetMap, La meteo Aeronautica in un colpo d'occhio ! - Copyright ORBIFLY Dicembre 2007 - Disclaimer

ORBIFLY MET'MAP TEAM :

Programmazione e sviluppo : Alexandra Zaïnal
Concezione : Baudouin d'Aumeries
Aiuto per la programmazione : Marc-Olivier Méhu
Supporto tecnico e logistico : Manuel Goepfert
Aiuto per la traduzione : Arnaldo La Scala

Contatto : metmap@orbifly.com




FONTI E CREDITI :

   NOAA